Monday, December 17, 2018, 6:11 AM EST
Back to Local

KOFP, Hanover County Municipal

Location: Ashland, VA, United States Lat: 37.7
Local Time: 6:11 AM EST (11:11 GMT) Lon: -77.433
Time Zone: US/Eastern Elev: 203 ft

Show me the last for .
Show Decoded

2018-12-17 06:02 METAR KOFP 171102Z AUTO 00000KT 1 1/2SM BR CLR 00/M01 A2994 RMK AO2 T00001011 =
2018-12-17 05:54 METAR KOFP 171054Z AUTO 00000KT 6SM BR CLR 00/M01 A2994 RMK AO2 SLP139 T00001011
                 =
2018-12-17 05:45 METAR KOFP 171045Z AUTO 00000KT 6SM BR CLR M01/M02 A2993 RMK AO2 T10061017 =
2018-12-17 05:17 METAR KOFP 171017Z AUTO 00000KT 2 1/2SM BR FEW001 00/M01 A2993 RMK AO2 VIS 1
                 1/4V5 T00001011 =
2018-12-17 05:06 METAR KOFP 171006Z AUTO 00000KT 1 3/4SM BR SCT001 00/M01 A2993 RMK AO2 T00001011
                 =
2018-12-17 04:59 METAR KOFP 170959Z AUTO 00000KT 2SM BR BKN001 00/M01 A2992 RMK AO2 T00001011 =
2018-12-17 04:54 METAR KOFP 170954Z AUTO 00000KT 1 1/4SM BR BKN001 M01/M01 A2992 RMK AO2 SLP133
                 I1002 T10061011 =
2018-12-17 04:02 METAR KOFP 170902Z AUTO 00000KT 1/2SM FG VV002 00/M01 A2994 RMK AO2 I1001
                 T00001006 =
2018-12-17 03:54 METAR KOFP 170854Z AUTO 00000KT 3/4SM BR CLR 01/M01 A2994 RMK AO2 SLP139 I3000
                 T00061006 58006 =
2018-12-17 03:01 METAR KOFP 170801Z AUTO 00000KT 1/2SM FG VV002 01/M01 A2994 RMK AO2 T00061006 =
2018-12-17 02:54 METAR KOFP 170754Z AUTO 00000KT 1/2SM FG CLR 01/M01 A2995 RMK AO2 SLP143 I1000
                 T00061006 =
2018-12-17 02:44 METAR KOFP 170744Z AUTO 00000KT 3/4SM BR CLR 01/00 A2995 RMK AO2 I1000 T00110000
                 =
2018-12-17 02:35 METAR KOFP 170735Z AUTO 00000KT 1SM BR CLR 02/01 A2995 RMK AO2 I1000 T00170006 =
2018-12-17 02:23 METAR KOFP 170723Z AUTO 00000KT 2 1/2SM BR CLR 02/01 A2995 RMK AO2 T00170006 =
2018-12-17 02:16 METAR KOFP 170716Z AUTO 00000KT 1 1/2SM BR CLR 02/01 A2995 RMK AO2 T00170006 =
2018-12-17 02:11 METAR KOFP 170711Z AUTO 00000KT 3/4SM BR CLR 01/01 A2995 RMK AO2 T00110006 =
2018-12-17 02:04 METAR KOFP 170704Z AUTO 00000KT 1SM BR CLR 02/01 A2995 RMK AO2 T00170006 =
2018-12-17 01:54 METAR KOFP 170654Z AUTO 00000KT 1 3/4SM BR CLR 02/01 A2995 RMK AO2 SLP144
                 T00170006 =
2018-12-17 01:51 METAR KOFP 170651Z AUTO 00000KT 2SM BR CLR 02/01 A2996 RMK AO2 =
2018-12-17 01:34 METAR KOFP 170634Z AUTO 00000KT 1 3/4SM BR FEW001 02/01 A2996 RMK AO2 T00170006
                 =
2018-12-17 01:29 METAR KOFP 170629Z AUTO 00000KT 3SM BR FEW001 02/01 A2996 RMK AO2 T00170006 =
2018-12-17 01:27 METAR KOFP 170627Z AUTO 00000KT 1 3/4SM BR FEW001 02/01 A2996 RMK AO2 T00170006
                 =
2018-12-17 01:18 METAR KOFP 170618Z AUTO 00000KT 1SM BR VV001 02/01 A2996 RMK AO2 T00170006 =
2018-12-17 01:16 METAR KOFP 170616Z AUTO 00000KT 1 1/2SM BR FEW002 02/01 A2995 RMK AO2 T00170006
                 =
2018-12-17 01:11 METAR KOFP 170611Z AUTO 00000KT 2 1/2SM BR CLR 02/01 A2995 RMK AO2 VIS 2V3
                 T00170006 =
2018-12-17 01:04 METAR KOFP 170604Z AUTO 00000KT 3SM BR CLR 02/01 A2995 RMK AO2 T00220011 =
2018-12-17 00:57 METAR KOFP 170557Z AUTO 00000KT 2 1/2SM BR CLR 02/01 A2995 RMK AO2 T00220011 =
2018-12-17 00:54 METAR KOFP 170554Z AUTO 00000KT 1 1/4SM BR CLR 02/01 A2995 RMK AO2 SLP143
                 T00220006 10061 20017 58001 =
2018-12-17 00:33 METAR KOFP 170533Z AUTO 00000KT 3/4SM BR CLR 02/01 A2995 RMK AO2 T00220011 =
2018-12-17 00:24 METAR KOFP 170524Z AUTO 00000KT 1SM BR CLR 02/01 A2995 RMK AO2 T00220011 =
2018-12-17 00:02 METAR KOFP 170502Z AUTO 00000KT 3/4SM BR CLR 03/02 A2995 RMK AO2 T00280017 =
2018-12-16 23:54 METAR KOFP 170454Z AUTO 00000KT 1 1/2SM BR FEW041 03/02 A2995 RMK AO2 VIS 3/4V5
                 SLP142 T00330022 401110028 =
2018-12-16 23:46 METAR KOFP 170446Z AUTO 00000KT 1 3/4SM BR BKN041 03/02 A2995 RMK AO2 T00280017
                 =
2018-12-16 22:54 METAR KOFP 170354Z AUTO 00000KT 10SM BKN041 04/02 A2996 RMK AO2 SLP146 T00390022
                 =
2018-12-16 21:54 METAR KOFP 170254Z AUTO 00000KT 10SM FEW041 05/03 A2995 RMK AO2 SLP144 T00500028
                 51011 =
2018-12-16 20:54 METAR KOFP 170154Z AUTO VRB04KT 10SM BKN041 06/03 A2995 RMK AO2 SLP143 T00560028
                 =
2018-12-16 19:54 METAR KOFP 170054Z AUTO VRB03KT 10SM CLR 05/03 A2995 RMK AO2 SLP142 T00500033 =
2018-12-16 18:54 METAR KOFP 162354Z AUTO 33003KT 10SM SCT075 06/04 A2992 RMK AO2 SLP132 60000
                 T00610039 10089 20061 51015 =
2018-12-16 17:54 METAR KOFP 162254Z AUTO 33004KT 10SM FEW023 OVC075 07/04 A2991 RMK AO2 SLP127
                 T00720044 =
2018-12-16 17:45 METAR KOFP 162245Z AUTO VRB05KT 10SM FEW023 OVC075 07/04 A2990 RMK AO2 T00720044
                 =
2018-12-16 17:34 METAR KOFP 162234Z AUTO 32004KT 10SM SCT013 BKN023 OVC080 07/04 A2990 RMK AO2
                 T00670044 =
2018-12-16 17:17 METAR KOFP 162217Z AUTO 34005KT 10SM BKN013 OVC022 07/05 A2989 RMK AO2 T00720050
                 =
2018-12-16 16:54 METAR KOFP 162154Z AUTO VRB03KT 10SM SCT013 OVC022 07/05 A2990 RMK AO2 SLP124
                 T00720050 =
2018-12-16 16:25 METAR KOFP 162125Z AUTO 32005KT 10SM SCT012 BKN023 OVC035 07/04 A2989 RMK AO2
                 T00720044 =
2018-12-16 15:54 METAR KOFP 162054Z AUTO 33005KT 10SM BKN010 OVC018 08/06 A2988 RMK AO2 SLP117
                 60000 T00780056 53013 =
2018-12-16 14:54 METAR KOFP 161954Z AUTO 31008KT 10SM BKN010 OVC018 08/06 A2985 RMK AO2 RAB24E33
                 CIG 008V015 SLP109 P0000 T00780056 =
2018-12-16 14:43 METAR KOFP 161943Z AUTO 31008KT 10SM BKN010 OVC017 08/06 A2985 RMK AO2 RAB24E33
                 CIG 008V012 P0000 T00830056 =
2018-12-16 14:29 METAR KOFP 161929Z AUTO 30011KT 10SM -RA BKN009 OVC019 08/06 A2985 RMK AO2 RAB24
                 P0000 T00780056 =
2018-12-16 13:54 METAR KOFP 161854Z AUTO 31009KT 10SM OVC011 08/06 A2984 RMK AO2 SLP106 T00830061
                 =
2018-12-16 13:51 METAR KOFP 161851Z AUTO VRB05KT 10SM OVC011 08/06 A2984 RMK AO2 CIG 009V015 =
2018-12-16 13:41 METAR KOFP 161841Z AUTO 32007KT 290V360 10SM OVC009 08/06 A2983 RMK AO2 CIG
                 009V013 T00830061 =
2018-12-16 12:54 METAR KOFP 161754Z AUTO 31008G15KT 10SM BKN010 OVC015 08/06 A2983 RMK AO2
                 RAB00E10 CIG 007V012 SLP101 P0000 60005 T00830061 10094 20083 56015 =
2018-12-16 12:17 METAR KOFP 161717Z AUTO VRB06KT 10SM BKN010 OVC018 09/07 A2983 RMK AO2 RAB00E10
                 P0000 T00890072 =
2018-12-16 12:02 METAR KOFP 161702Z AUTO VRB04KT 4SM -RA BR BKN008 OVC014 08/07 A2984 RMK AO2
                 RAB00 CIG 005V010 P0000 T00830072 =
2018-12-16 11:54 METAR KOFP 161654Z AUTO VRB06KT 8SM SCT008 OVC014 08/07 A2984 RMK AO2 RAB29E52
                 SLP104 P0001 T00830067 =
2018-12-16 11:02 METAR KOFP 161602Z AUTO VRB06KT 4SM BR OVC005 09/08 A2985 RMK AO2 CIG 004V010
                 T00890078 =
2018-12-16 10:54 METAR KOFP 161554Z AUTO 31007KT 2 1/2SM BR OVC006 09/08 A2985 RMK AO2 RAB04E43
                 SLP109 P0002 T00890078 =
2018-12-16 10:27 METAR KOFP 161527Z AUTO 29004KT 2SM -RA BR BKN006 OVC010 09/08 A2987 RMK AO2
                 RAB04 P0001 T00890078 =
2018-12-16 10:18 METAR KOFP 161518Z AUTO 28005KT 1 3/4SM -RA BR BKN006 OVC011 09/07 A2987 RMK AO2
                 RAB04 P0001 T00890072 =
2018-12-16 10:03 METAR KOFP 161503Z AUTO 29006KT 1 1/4SM BR OVC006 08/07 A2987 RMK AO2 T00830072
                 =
2018-12-16 09:54 METAR KOFP 161454Z AUTO 28006KT 2 1/2SM BR OVC006 08/07 A2988 RMK AO2 RAB15E26
                 CIG 004V009 SLP117 P0000 60002 T00830072 53004 =
2018-12-16 09:26 METAR KOFP 161426Z AUTO 30006KT 8SM OVC005 08/07 A2987 RMK AO2 RAB15E26 CIG
                 004V009 P0000 T00830072 =
2018-12-16 08:54 METAR KOFP 161354Z AUTO 25006KT 2SM BR OVC005 09/08 A2986 RMK AO2 CIG 003V008
                 SLP112 T00940078 =
2018-12-16 08:47 METAR KOFP 161347Z AUTO 24005KT 2SM BR OVC005 09/08 A2986 RMK AO2 CIG 003V008
                 T00940078 =
2018-12-16 08:19 METAR KOFP 161319Z AUTO 22004KT 4SM BR OVC005 09/08 A2986 RMK AO2 CIG 004V008
                 T00890078 =
2018-12-16 08:06 METAR KOFP 161306Z AUTO 25004KT 3SM BR OVC004 09/08 A2986 RMK AO2 T00890078 =
2018-12-16 07:54 METAR KOFP 161254Z AUTO 22004KT 2 1/2SM BR OVC004 09/08 A2986 RMK AO2 RAB02E48
                 SLP111 P0002 T00890078 =
2018-12-16 07:44 METAR KOFP 161244Z AUTO 23005KT 2 1/2SM -RA BR OVC004 09/08 A2986 RMK AO2 RAB02
                 P0002 T00890078 =
2018-12-16 07:28 METAR KOFP 161228Z AUTO 22008KT 3SM -RA BR OVC004 09/08 A2986 RMK AO2 RAB02
                 P0001 T00890078 =
2018-12-16 07:17 METAR KOFP 161217Z AUTO 23008KT 2 1/2SM -RA BR OVC003 09/08 A2986 RMK AO2 RAB02
                 P0001 T00890078 =
2018-12-16 06:54 METAR KOFP 161154Z AUTO 23007KT 4SM BR OVC003 09/08 A2986 RMK AO2 SLP112 60000
                 70014 T00940083 10111 20094 55001 =
2018-12-16 06:12 METAR KOFP 161112Z AUTO 20007KT 4SM BR OVC003 09/08 A2986 RMK AO2 T00940083 =

Support USWX by starting your Amazon purchase here.